sensor_id;sensor_type;location;lat;lon;timestamp;pressure;altitude;pressure_sealevel;temperature
71897;BMP280;59767;51.344;12.362;2023-02-28T00:00:57;159019.78;;;1.58
71897;BMP280;59767;51.344;12.362;2023-02-28T00:04:01;159030.19;;;1.62
71897;BMP280;59767;51.344;12.362;2023-02-28T00:07:05;159035.41;;;1.64
71897;BMP280;59767;51.344;12.362;2023-02-28T00:10:12;159035.41;;;1.64
71897;BMP280;59767;51.344;12.362;2023-02-28T00:13:16;159023.69;;;1.60
71897;BMP280;59767;51.344;12.362;2023-02-28T00:16:21;159023.69;;;1.60
71897;BMP280;59767;51.344;12.362;2023-02-28T00:19:25;159010.66;;;1.55
71897;BMP280;59767;51.344;12.362;2023-02-28T00:22:30;159002.84;;;1.52
71897;BMP280;59767;51.344;12.362;2023-02-28T00:25:34;159014.56;;;1.56
71897;BMP280;59767;51.344;12.362;2023-02-28T00:28:38;159030.19;;;1.62
71897;BMP280;59767;51.344;12.362;2023-02-28T00:31:42;159019.78;;;1.58
71897;BMP280;59767;51.344;12.362;2023-02-28T00:34:46;159017.16;;;1.57
71897;BMP280;59767;51.344;12.362;2023-02-28T00:37:51;159022.38;;;1.59
71897;BMP280;59767;51.344;12.362;2023-02-28T00:40:55;159005.44;;;1.53
71897;BMP280;59767;51.344;12.362;2023-02-28T00:43:59;159027.59;;;1.61
71897;BMP280;59767;51.344;12.362;2023-02-28T00:47:03;159044.53;;;1.68
71897;BMP280;59767;51.344;12.362;2023-02-28T00:50:08;159027.59;;;1.61
71897;BMP280;59767;51.344;12.362;2023-02-28T00:53:13;159022.38;;;1.59
71897;BMP280;59767;51.344;12.362;2023-02-28T00:56:17;159023.69;;;1.60
71897;BMP280;59767;51.344;12.362;2023-02-28T00:59:21;159019.78;;;1.58
71897;BMP280;59767;51.344;12.362;2023-02-28T01:02:25;159021.09;;;1.59
71897;BMP280;59767;51.344;12.362;2023-02-28T01:05:29;158995.03;;;1.49
71897;BMP280;59767;51.344;12.362;2023-02-28T01:08:33;158991.13;;;1.47
71897;BMP280;59767;51.344;12.362;2023-02-28T01:11:38;159006.75;;;1.53
71897;BMP280;59767;51.344;12.362;2023-02-28T01:14:42;159002.84;;;1.52
71897;BMP280;59767;51.344;12.362;2023-02-28T01:17:47;159019.78;;;1.58
71897;BMP280;59767;51.344;12.362;2023-02-28T01:20:51;159015.88;;;1.57
71897;BMP280;59767;51.344;12.362;2023-02-28T01:23:57;159000.25;;;1.51
71897;BMP280;59767;51.344;12.362;2023-02-28T01:27:01;158989.81;;;1.47
71897;BMP280;59767;51.344;12.362;2023-02-28T01:30:09;159001.53;;;1.51
71897;BMP280;59767;51.344;12.362;2023-02-28T01:33:13;159000.25;;;1.51
71897;BMP280;59767;51.344;12.362;2023-02-28T01:36:20;158996.34;;;1.49
71897;BMP280;59767;51.344;12.362;2023-02-28T01:39:25;159010.66;;;1.55
71897;BMP280;59767;51.344;12.362;2023-02-28T01:42:29;158993.72;;;1.48
71897;BMP280;59767;51.344;12.362;2023-02-28T01:45:35;158989.81;;;1.47
71897;BMP280;59767;51.344;12.362;2023-02-28T01:48:50;158979.41;;;1.43
71897;BMP280;59767;51.344;12.362;2023-02-28T01:51:56;158989.81;;;1.47
71897;BMP280;59767;51.344;12.362;2023-02-28T01:55:02;158966.38;;;1.38
71897;BMP280;59767;51.344;12.362;2023-02-28T01:58:08;158952.03;;;1.32
71897;BMP280;59767;51.344;12.362;2023-02-28T02:01:13;158961.16;;;1.36
71897;BMP280;59767;51.344;12.362;2023-02-28T02:04:27;158967.66;;;1.38
71897;BMP280;59767;51.344;12.362;2023-02-28T02:07:38;158966.38;;;1.38
71897;BMP280;59767;51.344;12.362;2023-02-28T02:10:48;158961.16;;;1.36
71897;BMP280;59767;51.344;12.362;2023-02-28T02:17:20;158972.88;;;1.40
71897;BMP280;59767;51.344;12.362;2023-02-28T02:27:31;158961.16;;;1.36
71897;BMP280;59767;51.344;12.362;2023-02-28T02:34:25;158932.56;;;1.25
71897;BMP280;59767;51.344;12.362;2023-02-28T02:37:41;158958.56;;;1.35
71897;BMP280;59767;51.344;12.362;2023-02-28T02:44:39;158915.63;;;1.18
71897;BMP280;59767;51.344;12.362;2023-02-28T02:47:45;158919.53;;;1.20
71897;BMP280;59767;51.344;12.362;2023-02-28T02:50:55;158894.78;;;1.10
71897;BMP280;59767;51.344;12.362;2023-02-28T02:54:05;158881.75;;;1.05
71897;BMP280;59767;51.344;12.362;2023-02-28T02:57:25;158854.44;;;0.95
71897;BMP280;59767;51.344;12.362;2023-02-28T03:00:36;158846.63;;;0.92
71897;BMP280;59767;51.344;12.362;2023-02-28T03:03:42;158831.00;;;0.86
71897;BMP280;59767;51.344;12.362;2023-02-28T03:06:47;158824.47;;;0.83
71897;BMP280;59767;51.344;12.362;2023-02-28T03:09:53;158814.09;;;0.79
71897;BMP280;59767;51.344;12.362;2023-02-28T03:13:14;158789.34;;;0.70
71897;BMP280;59767;51.344;12.362;2023-02-28T03:20:13;158778.91;;;0.66
71897;BMP280;59767;51.344;12.362;2023-02-28T03:23:23;158789.34;;;0.70
71897;BMP280;59767;51.344;12.362;2023-02-28T03:26:34;158785.44;;;0.68
71897;BMP280;59767;51.344;12.362;2023-02-28T03:29:46;158789.34;;;0.70
71897;BMP280;59767;51.344;12.362;2023-02-28T03:32:57;158771.13;;;0.63
71897;BMP280;59767;51.344;12.362;2023-02-28T03:36:06;158789.34;;;0.70
71897;BMP280;59767;51.344;12.362;2023-02-28T03:39:16;158791.94;;;0.71
71897;BMP280;59767;51.344;12.362;2023-02-28T03:42:24;158784.13;;;0.68
71897;BMP280;59767;51.344;12.362;2023-02-28T03:45:32;158739.88;;;0.51
71897;BMP280;59767;51.344;12.362;2023-02-28T03:48:55;158732.09;;;0.48
71897;BMP280;59767;51.344;12.362;2023-02-28T03:52:02;158726.88;;;0.46
71897;BMP280;59767;51.344;12.362;2023-02-28T03:55:10;158719.06;;;0.43
71897;BMP280;59767;51.344;12.362;2023-02-28T03:58:24;158721.66;;;0.44
71897;BMP280;59767;51.344;12.362;2023-02-28T04:01:31;158713.84;;;0.41
71897;BMP280;59767;51.344;12.362;2023-02-28T04:04:39;158721.66;;;0.44
71897;BMP280;59767;51.344;12.362;2023-02-28T04:07:52;158768.53;;;0.62
71897;BMP280;59767;51.344;12.362;2023-02-28T04:11:01;158786.72;;;0.69
71897;BMP280;59767;51.344;12.362;2023-02-28T04:14:09;158789.34;;;0.70
71897;BMP280;59767;51.344;12.362;2023-02-28T04:17:13;158802.38;;;0.75
71897;BMP280;59767;51.344;12.362;2023-02-28T04:20:17;158808.88;;;0.77
71897;BMP280;59767;51.344;12.362;2023-02-28T04:23:21;158803.66;;;0.75
71897;BMP280;59767;51.344;12.362;2023-02-28T04:26:31;158808.88;;;0.77
71897;BMP280;59767;51.344;12.362;2023-02-28T04:29:36;158785.44;;;0.68
71897;BMP280;59767;51.344;12.362;2023-02-28T04:32:40;158815.34;;;0.80
71897;BMP280;59767;51.344;12.362;2023-02-28T04:35:44;158797.16;;;0.73
71897;BMP280;59767;51.344;12.362;2023-02-28T04:38:48;158802.38;;;0.75
71897;BMP280;59767;51.344;12.362;2023-02-28T04:41:52;158802.38;;;0.75
71897;BMP280;59767;51.344;12.362;2023-02-28T04:44:56;158776.31;;;0.65
71897;BMP280;59767;51.344;12.362;2023-02-28T04:48:00;158772.44;;;0.63
71897;BMP280;59767;51.344;12.362;2023-02-28T04:51:10;158776.31;;;0.65
71897;BMP280;59767;51.344;12.362;2023-02-28T04:54:14;158763.31;;;0.60
71897;BMP280;59767;51.344;12.362;2023-02-28T04:57:20;158736.00;;;0.49
71897;BMP280;59767;51.344;12.362;2023-02-28T05:00:24;158748.97;;;0.54
71897;BMP280;59767;51.344;12.362;2023-02-28T05:03:28;158730.78;;;0.47
71897;BMP280;59767;51.344;12.362;2023-02-28T05:06:33;158747.69;;;0.54
71897;BMP280;59767;51.344;12.362;2023-02-28T05:09:37;158775.00;;;0.64
71897;BMP280;59767;51.344;12.362;2023-02-28T05:12:41;158773.69;;;0.64
71897;BMP280;59767;51.344;12.362;2023-02-28T05:15:45;158751.59;;;0.55
71897;BMP280;59767;51.344;12.362;2023-02-28T05:18:49;158746.38;;;0.53
71897;BMP280;59767;51.344;12.362;2023-02-28T05:21:55;158739.88;;;0.51
71897;BMP280;59767;51.344;12.362;2023-02-28T05:24:59;158745.06;;;0.53
71897;BMP280;59767;51.344;12.362;2023-02-28T05:28:03;158726.88;;;0.46
71897;BMP280;59767;51.344;12.362;2023-02-28T05:31:10;158746.38;;;0.53
71897;BMP280;59767;51.344;12.362;2023-02-28T05:34:15;158750.28;;;0.55
71897;BMP280;59767;51.344;12.362;2023-02-28T05:37:20;158734.69;;;0.49
71897;BMP280;59767;51.344;12.362;2023-02-28T05:40:25;158729.44;;;0.47
71897;BMP280;59767;51.344;12.362;2023-02-28T05:43:29;158724.25;;;0.45
71897;BMP280;59767;51.344;12.362;2023-02-28T05:46:34;158724.25;;;0.45
71897;BMP280;59767;51.344;12.362;2023-02-28T05:49:38;158729.44;;;0.47
71897;BMP280;59767;51.344;12.362;2023-02-28T05:52:42;158708.63;;;0.39
71897;BMP280;59767;51.344;12.362;2023-02-28T05:55:46;158704.72;;;0.37
71897;BMP280;59767;51.344;12.362;2023-02-28T05:58:53;158720.34;;;0.43
71897;BMP280;59767;51.344;12.362;2023-02-28T06:01:57;158707.38;;;0.38
71897;BMP280;59767;51.344;12.362;2023-02-28T06:05:01;158716.44;;;0.42
71897;BMP280;59767;51.344;12.362;2023-02-28T06:08:06;158704.72;;;0.37
71897;BMP280;59767;51.344;12.362;2023-02-28T06:11:11;158683.97;;;0.29
71897;BMP280;59767;51.344;12.362;2023-02-28T06:14:17;158676.16;;;0.26
71897;BMP280;59767;51.344;12.362;2023-02-28T06:17:22;158656.66;;;0.19
71897;BMP280;59767;51.344;12.362;2023-02-28T06:20:27;158643.63;;;0.14
71897;BMP280;59767;51.344;12.362;2023-02-28T06:23:34;158648.84;;;0.16
71897;BMP280;59767;51.344;12.362;2023-02-28T06:26:38;158643.63;;;0.14
71897;BMP280;59767;51.344;12.362;2023-02-28T06:29:42;158656.66;;;0.19
71897;BMP280;59767;51.344;12.362;2023-02-28T06:32:46;158681.38;;;0.28
71897;BMP280;59767;51.344;12.362;2023-02-28T06:35:52;158685.28;;;0.30
71897;BMP280;59767;51.344;12.362;2023-02-28T06:38:57;158680.06;;;0.28
71897;BMP280;59767;51.344;12.362;2023-02-28T06:42:01;158695.63;;;0.34
71897;BMP280;59767;51.344;12.362;2023-02-28T06:45:06;158703.41;;;0.37
71897;BMP280;59767;51.344;12.362;2023-02-28T06:48:13;158703.41;;;0.37
71897;BMP280;59767;51.344;12.362;2023-02-28T06:51:19;158720.34;;;0.43
71897;BMP280;59767;51.344;12.362;2023-02-28T06:54:28;158724.25;;;0.45
71897;BMP280;59767;51.344;12.362;2023-02-28T06:57:33;158726.88;;;0.46
71897;BMP280;59767;51.344;12.362;2023-02-28T07:00:38;158719.06;;;0.43
71897;BMP280;59767;51.344;12.362;2023-02-28T07:03:42;158729.44;;;0.47
71897;BMP280;59767;51.344;12.362;2023-02-28T07:06:46;158738.56;;;0.50
71897;BMP280;59767;51.344;12.362;2023-02-28T07:09:51;158754.19;;;0.56
71897;BMP280;59767;51.344;12.362;2023-02-28T07:12:55;158748.97;;;0.54
71897;BMP280;59767;51.344;12.362;2023-02-28T07:16:04;158790.63;;;0.70
71897;BMP280;59767;51.344;12.362;2023-02-28T07:19:09;158802.38;;;0.75
71897;BMP280;59767;51.344;12.362;2023-02-28T07:22:13;158803.66;;;0.75
71897;BMP280;59767;51.344;12.362;2023-02-28T07:25:18;158814.09;;;0.79
71897;BMP280;59767;51.344;12.362;2023-02-28T07:28:23;158827.13;;;0.84
71897;BMP280;59767;51.344;12.362;2023-02-28T07:31:27;158812.78;;;0.79
71897;BMP280;59767;51.344;12.362;2023-02-28T07:34:31;158821.91;;;0.82
71897;BMP280;59767;51.344;12.362;2023-02-28T07:37:35;158828.38;;;0.85
71897;BMP280;59767;51.344;12.362;2023-02-28T07:40:43;158860.94;;;0.97
71897;BMP280;59767;51.344;12.362;2023-02-28T07:43:46;158886.97;;;1.07
71897;BMP280;59767;51.344;12.362;2023-02-28T07:46:51;158886.97;;;1.07
71897;BMP280;59767;51.344;12.362;2023-02-28T07:49:57;158924.75;;;1.22
71897;BMP280;59767;51.344;12.362;2023-02-28T07:53:01;158936.47;;;1.26
71897;BMP280;59767;51.344;12.362;2023-02-28T07:56:06;158966.38;;;1.38
71897;BMP280;59767;51.344;12.362;2023-02-28T07:59:10;158995.03;;;1.49
71897;BMP280;59767;51.344;12.362;2023-02-28T08:02:15;159009.34;;;1.54
71897;BMP280;59767;51.344;12.362;2023-02-28T08:05:20;158995.03;;;1.49
71897;BMP280;59767;51.344;12.362;2023-02-28T08:08:25;159041.88;;;1.67
71897;BMP280;59767;51.344;12.362;2023-02-28T08:11:33;159082.31;;;1.83
71897;BMP280;59767;51.344;12.362;2023-02-28T08:14:37;159161.72;;;2.13
71897;BMP280;59767;51.344;12.362;2023-02-28T08:17:41;159328.50;;;2.77
71897;BMP280;59767;51.344;12.362;2023-02-28T08:20:46;159448.38;;;3.23
71897;BMP280;59767;51.344;12.362;2023-02-28T08:23:50;159557.91;;;3.66
71897;BMP280;59767;51.344;12.362;2023-02-28T08:26:55;159568.28;;;3.70
71897;BMP280;59767;51.344;12.362;2023-02-28T08:30:00;159566.97;;;3.69
71897;BMP280;59767;51.344;12.362;2023-02-28T08:33:04;159607.44;;;3.85
71897;BMP280;59767;51.344;12.362;2023-02-28T08:36:08;159572.19;;;3.71
71897;BMP280;59767;51.344;12.362;2023-02-28T08:39:15;159473.16;;;3.33
71897;BMP280;59767;51.344;12.362;2023-02-28T08:42:20;159501.84;;;3.44
71897;BMP280;59767;51.344;12.362;2023-02-28T08:45:24;159507.03;;;3.46
71897;BMP280;59767;51.344;12.362;2023-02-28T08:48:31;159524.00;;;3.53
71897;BMP280;59767;51.344;12.362;2023-02-28T08:51:36;159560.50;;;3.67
71897;BMP280;59767;51.344;12.362;2023-02-28T08:54:40;159542.22;;;3.60
71897;BMP280;59767;51.344;12.362;2023-02-28T08:57:44;159499.25;;;3.43
71897;BMP280;59767;51.344;12.362;2023-02-28T09:00:48;159505.69;;;3.45
71897;BMP280;59767;51.344;12.362;2023-02-28T09:03:53;159611.38;;;3.86
71897;BMP280;59767;51.344;12.362;2023-02-28T09:07:02;159670.00;;;4.09
71897;BMP280;59767;51.344;12.362;2023-02-28T09:10:07;159677.81;;;4.12
71897;BMP280;59767;51.344;12.362;2023-02-28T09:13:11;159758.69;;;4.43
71897;BMP280;59767;51.344;12.362;2023-02-28T09:16:16;159728.69;;;4.31
71897;BMP280;59767;51.344;12.362;2023-02-28T09:19:20;159633.47;;;3.95
71897;BMP280;59767;51.344;12.362;2023-02-28T09:22:25;159594.41;;;3.80
71897;BMP280;59767;51.344;12.362;2023-02-28T09:25:29;159593.06;;;3.79
71897;BMP280;59767;51.344;12.362;2023-02-28T09:28:33;159624.31;;;3.91
71897;BMP280;59767;51.344;12.362;2023-02-28T09:31:38;159590.47;;;3.78
71897;BMP280;59767;51.344;12.362;2023-02-28T09:34:42;159651.75;;;4.02
71897;BMP280;59767;51.344;12.362;2023-02-28T09:37:48;159767.84;;;4.46
71897;BMP280;59767;51.344;12.362;2023-02-28T09:40:56;159791.28;;;4.55
71897;BMP280;59767;51.344;12.362;2023-02-28T09:44:02;159733.88;;;4.33
71897;BMP280;59767;51.344;12.362;2023-02-28T09:47:33;159716.97;;;4.27
71897;BMP280;59767;51.344;12.362;2023-02-28T09:50:40;159651.75;;;4.02
71897;BMP280;59767;51.344;12.362;2023-02-28T09:53:45;159663.50;;;4.06
71897;BMP280;59767;51.344;12.362;2023-02-28T09:57:00;159720.88;;;4.28
71897;BMP280;59767;51.344;12.362;2023-02-28T10:00:20;159664.81;;;4.07
71897;BMP280;59767;51.344;12.362;2023-02-28T10:03:32;159650.44;;;4.01
71897;BMP280;59767;51.344;12.362;2023-02-28T10:06:45;159581.34;;;3.75
71897;BMP280;59767;51.344;12.362;2023-02-28T10:09:53;159505.69;;;3.45
71897;BMP280;59767;51.344;12.362;2023-02-28T10:13:02;159471.81;;;3.32
71897;BMP280;59767;51.344;12.362;2023-02-28T10:16:15;159457.50;;;3.27
71897;BMP280;59767;51.344;12.362;2023-02-28T10:23:14;159471.81;;;3.32
71897;BMP280;59767;51.344;12.362;2023-02-28T10:26:20;159484.88;;;3.37
71897;BMP280;59767;51.344;12.362;2023-02-28T10:29:25;159448.38;;;3.23
71897;BMP280;59767;51.344;12.362;2023-02-28T10:32:33;159486.19;;;3.38
71897;BMP280;59767;51.344;12.362;2023-02-28T10:35:37;159548.78;;;3.62
71897;BMP280;59767;51.344;12.362;2023-02-28T10:38:42;159642.59;;;3.98
71897;BMP280;59767;51.344;12.362;2023-02-28T10:41:46;159626.97;;;3.92
71897;BMP280;59767;51.344;12.362;2023-02-28T10:51:19;159730.03;;;4.32
71897;BMP280;59767;51.344;12.362;2023-02-28T10:54:29;159650.44;;;4.01
71897;BMP280;59767;51.344;12.362;2023-02-28T10:57:33;159596.97;;;3.81
71897;BMP280;59767;51.344;12.362;2023-02-28T11:00:37;159662.19;;;4.06
71897;BMP280;59767;51.344;12.362;2023-02-28T11:03:42;159664.81;;;4.07
71897;BMP280;59767;51.344;12.362;2023-02-28T11:06:46;159668.72;;;4.08
71897;BMP280;59767;51.344;12.362;2023-02-28T11:09:55;159667.41;;;4.08
71897;BMP280;59767;51.344;12.362;2023-02-28T11:13:00;159696.06;;;4.19
71897;BMP280;59767;51.344;12.362;2023-02-28T11:16:07;159684.31;;;4.14
71897;BMP280;59767;51.344;12.362;2023-02-28T11:19:25;159706.53;;;4.23
71897;BMP280;59767;51.344;12.362;2023-02-28T11:22:32;159705.22;;;4.22
71897;BMP280;59767;51.344;12.362;2023-02-28T11:25:47;159731.28;;;4.32
71897;BMP280;59767;51.344;12.362;2023-02-28T11:29:05;159752.19;;;4.40
71897;BMP280;59767;51.344;12.362;2023-02-28T11:32:20;159685.66;;;4.15
71897;BMP280;59767;51.344;12.362;2023-02-28T11:35:38;159736.47;;;4.34
71897;BMP280;59767;51.344;12.362;2023-02-28T11:38:43;159758.69;;;4.43
71897;BMP280;59767;51.344;12.362;2023-02-28T11:41:54;159805.66;;;4.61
71897;BMP280;59767;51.344;12.362;2023-02-28T11:48:58;159836.91;;;4.73
71897;BMP280;59767;51.344;12.362;2023-02-28T11:52:13;159856.50;;;4.80
71897;BMP280;59767;51.344;12.362;2023-02-28T12:02:16;159842.16;;;4.75
71897;BMP280;59767;51.344;12.362;2023-02-28T12:06:01;159783.44;;;4.52
71897;BMP280;59767;51.344;12.362;2023-02-28T12:12:51;159690.84;;;4.17
71897;BMP280;59767;51.344;12.362;2023-02-28T12:26:41;159847.41;;;4.77
71897;BMP280;59767;51.344;12.362;2023-02-28T12:30:00;159844.75;;;4.76
71897;BMP280;59767;51.344;12.362;2023-02-28T12:33:09;159804.34;;;4.60
71897;BMP280;59767;51.344;12.362;2023-02-28T12:36:17;159774.34;;;4.49
71897;BMP280;59767;51.344;12.362;2023-02-28T12:39:33;159831.69;;;4.71
71897;BMP280;59767;51.344;12.362;2023-02-28T12:42:57;159838.25;;;4.73
71897;BMP280;59767;51.344;12.362;2023-02-28T12:46:24;159775.66;;;4.49
71897;BMP280;59767;51.344;12.362;2023-02-28T12:49:34;159749.53;;;4.39
71897;BMP280;59767;51.344;12.362;2023-02-28T12:53:09;159810.84;;;4.63
71897;BMP280;59767;51.344;12.362;2023-02-28T12:56:33;159848.66;;;4.77
71897;BMP280;59767;51.344;12.362;2023-02-28T12:59:42;159838.25;;;4.73
71897;BMP280;59767;51.344;12.362;2023-02-28T13:06:39;159853.91;;;4.79
71897;BMP280;59767;51.344;12.362;2023-02-28T13:09:54;159846.06;;;4.76
71897;BMP280;59767;51.344;12.362;2023-02-28T13:13:02;159857.81;;;4.81
71897;BMP280;59767;51.344;12.362;2023-02-28T13:16:08;159856.50;;;4.80
71897;BMP280;59767;51.344;12.362;2023-02-28T13:19:17;159863.06;;;4.83
71897;BMP280;59767;51.344;12.362;2023-02-28T13:28:59;159878.66;;;4.89
71897;BMP280;59767;51.344;12.362;2023-02-28T13:38:21;159886.50;;;4.92
71897;BMP280;59767;51.344;12.362;2023-02-28T13:45:19;159886.50;;;4.92
71897;BMP280;59767;51.344;12.362;2023-02-28T13:48:19;159913.91;;;5.02
71897;BMP280;59767;51.344;12.362;2023-02-28T13:51:43;159872.22;;;4.86
71897;BMP280;59767;51.344;12.362;2023-02-28T14:07:49;159933.47;;;5.10
71897;BMP280;59767;51.344;12.362;2023-02-28T14:11:06;159929.56;;;5.08
71897;BMP280;59767;51.344;12.362;2023-02-28T14:17:40;159891.72;;;4.94
71897;BMP280;59767;51.344;12.362;2023-02-28T14:20:46;159873.44;;;4.87
71897;BMP280;59767;51.344;12.362;2023-02-28T14:34:15;159891.72;;;4.94
71897;BMP280;59767;51.344;12.362;2023-02-28T14:37:27;159890.41;;;4.93
71897;BMP280;59767;51.344;12.362;2023-02-28T14:40:35;159883.91;;;4.91
71897;BMP280;59767;51.344;12.362;2023-02-28T14:43:48;159842.16;;;4.75
71897;BMP280;59767;51.344;12.362;2023-02-28T14:46:58;159866.97;;;4.84
71897;BMP280;59767;51.344;12.362;2023-02-28T14:50:04;159857.81;;;4.81
71897;BMP280;59767;51.344;12.362;2023-02-28T14:53:16;159829.09;;;4.70
71897;BMP280;59767;51.344;12.362;2023-02-28T14:56:23;159787.34;;;4.54
71897;BMP280;59767;51.344;12.362;2023-02-28T14:59:31;159797.81;;;4.58
71897;BMP280;59767;51.344;12.362;2023-02-28T15:02:36;159784.75;;;4.53
71897;BMP280;59767;51.344;12.362;2023-02-28T15:05:41;159762.59;;;4.44
71897;BMP280;59767;51.344;12.362;2023-02-28T15:08:45;159730.03;;;4.32
71897;BMP280;59767;51.344;12.362;2023-02-28T15:11:50;159741.72;;;4.36
71897;BMP280;59767;51.344;12.362;2023-02-28T15:14:54;159769.09;;;4.47
71897;BMP280;59767;51.344;12.362;2023-02-28T15:17:59;159752.19;;;4.40
71897;BMP280;59767;51.344;12.362;2023-02-28T15:21:07;159754.78;;;4.41
71897;BMP280;59767;51.344;12.362;2023-02-28T15:24:21;159762.59;;;4.44
71897;BMP280;59767;51.344;12.362;2023-02-28T15:27:31;159730.03;;;4.32
71897;BMP280;59767;51.344;12.362;2023-02-28T15:30:36;159696.06;;;4.19
71897;BMP280;59767;51.344;12.362;2023-02-28T15:33:52;159705.22;;;4.22
71897;BMP280;59767;51.344;12.362;2023-02-28T15:36:56;159711.72;;;4.25
71897;BMP280;59767;51.344;12.362;2023-02-28T15:40:12;159693.47;;;4.18
71897;BMP280;59767;51.344;12.362;2023-02-28T15:43:39;159685.66;;;4.15
71897;BMP280;59767;51.344;12.362;2023-02-28T15:46:54;159689.56;;;4.16
71897;BMP280;59767;51.344;12.362;2023-02-28T15:50:06;159670.00;;;4.09
71897;BMP280;59767;51.344;12.362;2023-02-28T15:53:17;159675.22;;;4.11
71897;BMP280;59767;51.344;12.362;2023-02-28T15:59:30;159633.47;;;3.95
71897;BMP280;59767;51.344;12.362;2023-02-28T16:02:36;159615.28;;;3.88
71897;BMP280;59767;51.344;12.362;2023-02-28T16:05:41;159621.78;;;3.90
71897;BMP280;59767;51.344;12.362;2023-02-28T16:08:45;159612.63;;;3.87
71897;BMP280;59767;51.344;12.362;2023-02-28T16:11:55;159606.13;;;3.84
71897;BMP280;59767;51.344;12.362;2023-02-28T16:15:01;159620.47;;;3.90
71897;BMP280;59767;51.344;12.362;2023-02-28T16:18:08;159602.22;;;3.83
71897;BMP280;59767;51.344;12.362;2023-02-28T16:21:13;159553.94;;;3.64
71897;BMP280;59767;51.344;12.362;2023-02-28T16:24:18;159572.19;;;3.71
71897;BMP280;59767;51.344;12.362;2023-02-28T16:27:31;159583.94;;;3.76
71897;BMP280;59767;51.344;12.362;2023-02-28T16:30:36;159568.28;;;3.70
71897;BMP280;59767;51.344;12.362;2023-02-28T16:33:40;159561.84;;;3.67
71897;BMP280;59767;51.344;12.362;2023-02-28T16:36:48;159548.78;;;3.62
71897;BMP280;59767;51.344;12.362;2023-02-28T16:39:52;159540.94;;;3.59
71897;BMP280;59767;51.344;12.362;2023-02-28T16:42:58;159514.84;;;3.49
71897;BMP280;59767;51.344;12.362;2023-02-28T16:46:04;159508.34;;;3.46
71897;BMP280;59767;51.344;12.362;2023-02-28T16:49:12;159508.34;;;3.46
71897;BMP280;59767;51.344;12.362;2023-02-28T16:52:16;159488.78;;;3.39
71897;BMP280;59767;51.344;12.362;2023-02-28T16:55:22;159487.53;;;3.38
71897;BMP280;59767;51.344;12.362;2023-02-28T16:58:26;159492.69;;;3.40
71897;BMP280;59767;51.344;12.362;2023-02-28T17:01:31;159445.78;;;3.22
71897;BMP280;59767;51.344;12.362;2023-02-28T17:04:36;159424.94;;;3.14
71897;BMP280;59767;51.344;12.362;2023-02-28T17:07:41;159450.94;;;3.24
71897;BMP280;59767;51.344;12.362;2023-02-28T17:10:45;159470.56;;;3.32
71897;BMP280;59767;51.344;12.362;2023-02-28T17:13:49;159440.53;;;3.20
71897;BMP280;59767;51.344;12.362;2023-02-28T17:16:54;159424.94;;;3.14
71897;BMP280;59767;51.344;12.362;2023-02-28T17:19:57;159427.53;;;3.15
71897;BMP280;59767;51.344;12.362;2023-02-28T17:23:02;159419.72;;;3.12
71897;BMP280;59767;51.344;12.362;2023-02-28T17:26:06;159396.25;;;3.03
71897;BMP280;59767;51.344;12.362;2023-02-28T17:29:19;159372.75;;;2.94
71897;BMP280;59767;51.344;12.362;2023-02-28T17:32:23;159357.16;;;2.88
71897;BMP280;59767;51.344;12.362;2023-02-28T17:35:27;159364.94;;;2.91
71897;BMP280;59767;51.344;12.362;2023-02-28T17:38:32;159375.41;;;2.95
71897;BMP280;59767;51.344;12.362;2023-02-28T17:41:36;159371.50;;;2.94
71897;BMP280;59767;51.344;12.362;2023-02-28T17:44:40;159359.75;;;2.89
71897;BMP280;59767;51.344;12.362;2023-02-28T17:47:47;159362.41;;;2.90
71897;BMP280;59767;51.344;12.362;2023-02-28T17:50:51;159338.94;;;2.81
71897;BMP280;59767;51.344;12.362;2023-02-28T17:53:55;159325.91;;;2.76
71897;BMP280;59767;51.344;12.362;2023-02-28T17:56:59;159315.44;;;2.72
71897;BMP280;59767;51.344;12.362;2023-02-28T18:00:05;159307.63;;;2.69
71897;BMP280;59767;51.344;12.362;2023-02-28T18:03:12;159308.94;;;2.70
71897;BMP280;59767;51.344;12.362;2023-02-28T18:06:41;159320.66;;;2.74
71897;BMP280;59767;51.344;12.362;2023-02-28T18:09:53;159306.31;;;2.69
71897;BMP280;59767;51.344;12.362;2023-02-28T18:12:57;159307.63;;;2.69
71897;BMP280;59767;51.344;12.362;2023-02-28T18:16:01;159276.41;;;2.57
71897;BMP280;59767;51.344;12.362;2023-02-28T18:19:06;159271.19;;;2.55
71897;BMP280;59767;51.344;12.362;2023-02-28T18:22:11;159251.63;;;2.48
71897;BMP280;59767;51.344;12.362;2023-02-28T18:25:15;159239.91;;;2.43
71897;BMP280;59767;51.344;12.362;2023-02-28T18:28:19;159221.66;;;2.36
71897;BMP280;59767;51.344;12.362;2023-02-28T18:31:23;159211.19;;;2.32
71897;BMP280;59767;51.344;12.362;2023-02-28T18:34:28;159196.94;;;2.27
71897;BMP280;59767;51.344;12.362;2023-02-28T18:37:33;159185.22;;;2.22
71897;BMP280;59767;51.344;12.362;2023-02-28T18:40:38;159190.44;;;2.24
71897;BMP280;59767;51.344;12.362;2023-02-28T18:43:42;159179.97;;;2.20
71897;BMP280;59767;51.344;12.362;2023-02-28T18:46:48;159146.09;;;2.07
71897;BMP280;59767;51.344;12.362;2023-02-28T18:49:53;159125.25;;;1.99
71897;BMP280;59767;51.344;12.362;2023-02-28T18:52:57;159139.59;;;2.05
71897;BMP280;59767;51.344;12.362;2023-02-28T18:56:03;159159.13;;;2.12
71897;BMP280;59767;51.344;12.362;2023-02-28T18:59:08;159134.38;;;2.03
71897;BMP280;59767;51.344;12.362;2023-02-28T19:02:14;159114.84;;;1.95
71897;BMP280;59767;51.344;12.362;2023-02-28T19:05:18;159101.81;;;1.90
71897;BMP280;59767;51.344;12.362;2023-02-28T19:08:23;159114.84;;;1.95
71897;BMP280;59767;51.344;12.362;2023-02-28T19:11:28;159143.50;;;2.06
71897;BMP280;59767;51.344;12.362;2023-02-28T19:14:32;159138.28;;;2.04
71897;BMP280;59767;51.344;12.362;2023-02-28T19:17:37;159122.66;;;1.98
71897;BMP280;59767;51.344;12.362;2023-02-28T19:20:41;159104.38;;;1.91
71897;BMP280;59767;51.344;12.362;2023-02-28T19:23:45;159086.22;;;1.84
71897;BMP280;59767;51.344;12.362;2023-02-28T19:26:49;159065.38;;;1.76
71897;BMP280;59767;51.344;12.362;2023-02-28T19:29:54;159060.16;;;1.74